sensor_id;sensor_type;location;lat;lon;timestamp;P1;durP1;ratioP1;P2;durP2;ratioP2
67193;SDS011;54121;53.508;49.422;2022-10-16T00:00:07;10.10;;;4.15;;
67193;SDS011;54121;53.508;49.422;2022-10-16T00:02:39;9.85;;;4.47;;
67193;SDS011;54121;53.508;49.422;2022-10-16T00:05:11;19.48;;;6.50;;
67193;SDS011;54121;53.508;49.422;2022-10-16T00:07:43;13.57;;;5.18;;
67193;SDS011;54121;53.508;49.422;2022-10-16T00:10:15;13.02;;;5.57;;
67193;SDS011;54121;53.508;49.422;2022-10-16T00:12:46;16.85;;;5.78;;
67193;SDS011;54121;53.508;49.422;2022-10-16T00:15:18;10.60;;;6.63;;
67193;SDS011;54121;53.508;49.422;2022-10-16T00:17:50;13.32;;;7.72;;
67193;SDS011;54121;53.508;49.422;2022-10-16T00:20:22;15.88;;;8.95;;
67193;SDS011;54121;53.508;49.422;2022-10-16T00:22:54;16.35;;;8.45;;
67193;SDS011;54121;53.508;49.422;2022-10-16T00:25:26;17.13;;;7.10;;
67193;SDS011;54121;53.508;49.422;2022-10-16T00:27:58;15.15;;;6.45;;
67193;SDS011;54121;53.508;49.422;2022-10-16T00:30:37;11.85;;;7.40;;
67193;SDS011;54121;53.508;49.422;2022-10-16T00:33:09;16.02;;;8.57;;
67193;SDS011;54121;53.508;49.422;2022-10-16T00:35:41;14.10;;;7.78;;
67193;SDS011;54121;53.508;49.422;2022-10-16T00:38:13;15.68;;;9.05;;
67193;SDS011;54121;53.508;49.422;2022-10-16T00:40:45;15.32;;;9.00;;
67193;SDS011;54121;53.508;49.422;2022-10-16T00:43:37;15.10;;;8.23;;
67193;SDS011;54121;53.508;49.422;2022-10-16T00:46:23;15.32;;;8.18;;
67193;SDS011;54121;53.508;49.422;2022-10-16T00:49:16;12.23;;;6.82;;
67193;SDS011;54121;53.508;49.422;2022-10-16T00:51:50;18.00;;;8.07;;
67193;SDS011;54121;53.508;49.422;2022-10-16T00:54:29;11.52;;;6.50;;
67193;SDS011;54121;53.508;49.422;2022-10-16T00:57:03;19.77;;;7.18;;
67193;SDS011;54121;53.508;49.422;2022-10-16T00:59:38;23.40;;;6.40;;
67193;SDS011;54121;53.508;49.422;2022-10-16T01:02:13;16.00;;;5.63;;
67193;SDS011;54121;53.508;49.422;2022-10-16T01:04:50;15.15;;;5.25;;
67193;SDS011;54121;53.508;49.422;2022-10-16T01:07:30;18.30;;;5.85;;
67193;SDS011;54121;53.508;49.422;2022-10-16T01:10:07;13.25;;;5.13;;
67193;SDS011;54121;53.508;49.422;2022-10-16T01:13:01;16.10;;;4.30;;
67193;SDS011;54121;53.508;49.422;2022-10-16T01:21:48;8.73;;;4.28;;
67193;SDS011;54121;53.508;49.422;2022-10-16T01:24:27;8.93;;;4.97;;
67193;SDS011;54121;53.508;49.422;2022-10-16T01:29:48;12.32;;;4.43;;
67193;SDS011;54121;53.508;49.422;2022-10-16T01:33:01;19.50;;;7.55;;
67193;SDS011;54121;53.508;49.422;2022-10-16T01:35:46;12.27;;;5.85;;
67193;SDS011;54121;53.508;49.422;2022-10-16T01:38:25;14.85;;;5.28;;
67193;SDS011;54121;53.508;49.422;2022-10-16T01:41:12;13.07;;;5.50;;
67193;SDS011;54121;53.508;49.422;2022-10-16T01:44:05;21.05;;;5.88;;
67193;SDS011;54121;53.508;49.422;2022-10-16T01:46:42;13.38;;;4.63;;
67193;SDS011;54121;53.508;49.422;2022-10-16T01:49:17;7.85;;;3.92;;
67193;SDS011;54121;53.508;49.422;2022-10-16T01:51:52;13.43;;;4.93;;
67193;SDS011;54121;53.508;49.422;2022-10-16T01:54:27;14.13;;;4.80;;
67193;SDS011;54121;53.508;49.422;2022-10-16T01:57:03;12.32;;;4.65;;
67193;SDS011;54121;53.508;49.422;2022-10-16T01:59:43;17.10;;;4.60;;
67193;SDS011;54121;53.508;49.422;2022-10-16T02:02:17;10.05;;;4.10;;
67193;SDS011;54121;53.508;49.422;2022-10-16T02:04:54;8.95;;;4.70;;
67193;SDS011;54121;53.508;49.422;2022-10-16T02:07:32;17.55;;;6.53;;
67193;SDS011;54121;53.508;49.422;2022-10-16T02:10:04;11.75;;;5.55;;
67193;SDS011;54121;53.508;49.422;2022-10-16T02:12:37;11.75;;;4.13;;
67193;SDS011;54121;53.508;49.422;2022-10-16T02:15:13;12.30;;;4.32;;
67193;SDS011;54121;53.508;49.422;2022-10-16T02:17:45;8.65;;;4.72;;
67193;SDS011;54121;53.508;49.422;2022-10-16T02:20:17;17.30;;;5.88;;
67193;SDS011;54121;53.508;49.422;2022-10-16T02:22:56;14.43;;;5.32;;
67193;SDS011;54121;53.508;49.422;2022-10-16T02:25:35;28.08;;;6.32;;
67193;SDS011;54121;53.508;49.422;2022-10-16T02:30:52;33.15;;;8.45;;
67193;SDS011;54121;53.508;49.422;2022-10-16T02:33:31;36.25;;;8.18;;
67193;SDS011;54121;53.508;49.422;2022-10-16T02:36:04;20.98;;;7.03;;
67193;SDS011;54121;53.508;49.422;2022-10-16T02:38:37;23.30;;;6.70;;
67193;SDS011;54121;53.508;49.422;2022-10-16T02:41:11;34.75;;;13.60;;
67193;SDS011;54121;53.508;49.422;2022-10-16T02:43:43;24.33;;;8.95;;
67193;SDS011;54121;53.508;49.422;2022-10-16T02:46:15;26.80;;;7.63;;
67193;SDS011;54121;53.508;49.422;2022-10-16T02:48:49;27.42;;;6.40;;
67193;SDS011;54121;53.508;49.422;2022-10-16T02:51:21;19.10;;;6.05;;
67193;SDS011;54121;53.508;49.422;2022-10-16T02:53:53;24.08;;;5.75;;
67193;SDS011;54121;53.508;49.422;2022-10-16T02:56:24;13.55;;;5.30;;
67193;SDS011;54121;53.508;49.422;2022-10-16T02:58:56;11.73;;;4.05;;
67193;SDS011;54121;53.508;49.422;2022-10-16T03:01:28;9.63;;;4.05;;
67193;SDS011;54121;53.508;49.422;2022-10-16T03:04:00;18.05;;;6.13;;
67193;SDS011;54121;53.508;49.422;2022-10-16T03:06:32;21.65;;;4.47;;
67193;SDS011;54121;53.508;49.422;2022-10-16T03:09:03;29.80;;;5.72;;
67193;SDS011;54121;53.508;49.422;2022-10-16T03:11:35;18.75;;;5.28;;
67193;SDS011;54121;53.508;49.422;2022-10-16T03:14:07;11.15;;;4.28;;
67193;SDS011;54121;53.508;49.422;2022-10-16T03:16:39;26.92;;;5.38;;
67193;SDS011;54121;53.508;49.422;2022-10-16T03:19:11;11.13;;;5.50;;
67193;SDS011;54121;53.508;49.422;2022-10-16T03:21:43;17.83;;;6.60;;
67193;SDS011;54121;53.508;49.422;2022-10-16T03:24:15;27.35;;;7.15;;
67193;SDS011;54121;53.508;49.422;2022-10-16T03:26:47;19.08;;;5.35;;
67193;SDS011;54121;53.508;49.422;2022-10-16T03:29:19;20.83;;;5.00;;
67193;SDS011;54121;53.508;49.422;2022-10-16T03:31:51;15.05;;;6.38;;
67193;SDS011;54121;53.508;49.422;2022-10-16T03:34:23;19.38;;;5.97;;
67193;SDS011;54121;53.508;49.422;2022-10-16T03:36:56;15.98;;;5.57;;
67193;SDS011;54121;53.508;49.422;2022-10-16T03:39:28;11.40;;;4.40;;
67193;SDS011;54121;53.508;49.422;2022-10-16T03:42:00;24.30;;;6.22;;
67193;SDS011;54121;53.508;49.422;2022-10-16T03:44:32;20.92;;;9.27;;
67193;SDS011;54121;53.508;49.422;2022-10-16T03:47:04;16.02;;;6.03;;
67193;SDS011;54121;53.508;49.422;2022-10-16T03:49:36;17.50;;;6.18;;
67193;SDS011;54121;53.508;49.422;2022-10-16T03:52:08;23.70;;;8.10;;
67193;SDS011;54121;53.508;49.422;2022-10-16T03:54:39;32.35;;;6.90;;
67193;SDS011;54121;53.508;49.422;2022-10-16T03:57:12;27.15;;;5.90;;
67193;SDS011;54121;53.508;49.422;2022-10-16T03:59:43;51.47;;;7.18;;
67193;SDS011;54121;53.508;49.422;2022-10-16T04:02:15;21.58;;;5.55;;
67193;SDS011;54121;53.508;49.422;2022-10-16T04:04:47;24.92;;;7.72;;
67193;SDS011;54121;53.508;49.422;2022-10-16T04:07:19;25.70;;;7.28;;
67193;SDS011;54121;53.508;49.422;2022-10-16T04:09:51;31.77;;;7.03;;
67193;SDS011;54121;53.508;49.422;2022-10-16T04:12:23;24.77;;;9.70;;
67193;SDS011;54121;53.508;49.422;2022-10-16T04:14:54;24.20;;;9.07;;
67193;SDS011;54121;53.508;49.422;2022-10-16T04:17:27;16.05;;;5.97;;
67193;SDS011;54121;53.508;49.422;2022-10-16T04:19:59;9.15;;;4.32;;
67193;SDS011;54121;53.508;49.422;2022-10-16T04:22:30;9.23;;;3.92;;
67193;SDS011;54121;53.508;49.422;2022-10-16T04:25:02;23.80;;;5.32;;
67193;SDS011;54121;53.508;49.422;2022-10-16T04:27:34;23.23;;;5.55;;
67193;SDS011;54121;53.508;49.422;2022-10-16T04:30:06;10.57;;;4.22;;
67193;SDS011;54121;53.508;49.422;2022-10-16T04:32:38;20.98;;;4.85;;
67193;SDS011;54121;53.508;49.422;2022-10-16T04:35:10;24.25;;;6.75;;
67193;SDS011;54121;53.508;49.422;2022-10-16T04:37:42;19.70;;;7.47;;
67193;SDS011;54121;53.508;49.422;2022-10-16T04:40:14;15.45;;;4.47;;
67193;SDS011;54121;53.508;49.422;2022-10-16T04:42:47;13.15;;;4.25;;
67193;SDS011;54121;53.508;49.422;2022-10-16T04:45:18;12.15;;;3.95;;
67193;SDS011;54121;53.508;49.422;2022-10-16T04:47:50;25.48;;;4.43;;
67193;SDS011;54121;53.508;49.422;2022-10-16T04:50:22;29.63;;;5.05;;
67193;SDS011;54121;53.508;49.422;2022-10-16T04:52:54;14.85;;;4.60;;
67193;SDS011;54121;53.508;49.422;2022-10-16T04:55:26;9.65;;;4.47;;
67193;SDS011;54121;53.508;49.422;2022-10-16T04:57:57;12.15;;;4.28;;
67193;SDS011;54121;53.508;49.422;2022-10-16T05:00:29;11.63;;;4.88;;
67193;SDS011;54121;53.508;49.422;2022-10-16T05:03:01;8.20;;;4.05;;
67193;SDS011;54121;53.508;49.422;2022-10-16T05:05:36;10.52;;;3.42;;
67193;SDS011;54121;53.508;49.422;2022-10-16T05:08:13;4.65;;;3.25;;
67193;SDS011;54121;53.508;49.422;2022-10-16T05:10:46;11.32;;;3.60;;
67193;SDS011;54121;53.508;49.422;2022-10-16T05:13:18;6.63;;;3.08;;
67193;SDS011;54121;53.508;49.422;2022-10-16T05:15:50;8.88;;;3.50;;
67193;SDS011;54121;53.508;49.422;2022-10-16T05:18:24;8.07;;;3.22;;
67193;SDS011;54121;53.508;49.422;2022-10-16T05:20:56;6.20;;;3.22;;
67193;SDS011;54121;53.508;49.422;2022-10-16T05:23:28;7.15;;;3.40;;
67193;SDS011;54121;53.508;49.422;2022-10-16T05:26:00;4.88;;;3.30;;
67193;SDS011;54121;53.508;49.422;2022-10-16T05:28:32;7.90;;;2.38;;
67193;SDS011;54121;53.508;49.422;2022-10-16T05:31:07;16.73;;;4.28;;
67193;SDS011;54121;53.508;49.422;2022-10-16T05:33:40;8.23;;;3.47;;
67193;SDS011;54121;53.508;49.422;2022-10-16T05:36:12;9.65;;;3.90;;
67193;SDS011;54121;53.508;49.422;2022-10-16T05:38:44;5.50;;;2.35;;
67193;SDS011;54121;53.508;49.422;2022-10-16T05:41:16;5.30;;;3.30;;
67193;SDS011;54121;53.508;49.422;2022-10-16T05:43:52;5.60;;;2.60;;
67193;SDS011;54121;53.508;49.422;2022-10-16T05:46:24;7.80;;;3.22;;
67193;SDS011;54121;53.508;49.422;2022-10-16T05:48:56;6.18;;;2.70;;
67193;SDS011;54121;53.508;49.422;2022-10-16T05:51:28;6.95;;;3.13;;
67193;SDS011;54121;53.508;49.422;2022-10-16T05:54:00;7.75;;;3.47;;
67193;SDS011;54121;53.508;49.422;2022-10-16T05:56:31;5.88;;;2.40;;
67193;SDS011;54121;53.508;49.422;2022-10-16T05:59:03;5.90;;;2.65;;
67193;SDS011;54121;53.508;49.422;2022-10-16T06:01:36;6.80;;;2.97;;
67193;SDS011;54121;53.508;49.422;2022-10-16T06:04:08;11.68;;;3.45;;
67193;SDS011;54121;53.508;49.422;2022-10-16T06:06:40;10.02;;;3.35;;
67193;SDS011;54121;53.508;49.422;2022-10-16T06:09:12;7.00;;;2.60;;
67193;SDS011;54121;53.508;49.422;2022-10-16T06:11:44;6.20;;;2.92;;
67193;SDS011;54121;53.508;49.422;2022-10-16T06:14:15;14.90;;;3.90;;
67193;SDS011;54121;53.508;49.422;2022-10-16T06:16:47;8.07;;;3.25;;
67193;SDS011;54121;53.508;49.422;2022-10-16T06:19:19;7.60;;;3.00;;
67193;SDS011;54121;53.508;49.422;2022-10-16T06:21:51;6.45;;;3.17;;
67193;SDS011;54121;53.508;49.422;2022-10-16T06:24:23;7.93;;;3.00;;
67193;SDS011;54121;53.508;49.422;2022-10-16T06:26:55;11.68;;;3.67;;
67193;SDS011;54121;53.508;49.422;2022-10-16T06:29:27;12.38;;;3.47;;
67193;SDS011;54121;53.508;49.422;2022-10-16T06:31:59;4.65;;;2.60;;
67193;SDS011;54121;53.508;49.422;2022-10-16T06:34:31;6.93;;;3.03;;
67193;SDS011;54121;53.508;49.422;2022-10-16T06:37:02;8.02;;;4.03;;
67193;SDS011;54121;53.508;49.422;2022-10-16T06:39:34;8.75;;;2.92;;
67193;SDS011;54121;53.508;49.422;2022-10-16T06:42:06;10.75;;;3.90;;
67193;SDS011;54121;53.508;49.422;2022-10-16T06:44:38;7.18;;;2.88;;
67193;SDS011;54121;53.508;49.422;2022-10-16T06:47:10;7.03;;;2.70;;
67193;SDS011;54121;53.508;49.422;2022-10-16T06:49:42;4.70;;;2.13;;
67193;SDS011;54121;53.508;49.422;2022-10-16T06:52:14;4.18;;;2.75;;
67193;SDS011;54121;53.508;49.422;2022-10-16T06:54:46;11.23;;;3.53;;
67193;SDS011;54121;53.508;49.422;2022-10-16T06:57:17;7.90;;;3.05;;
67193;SDS011;54121;53.508;49.422;2022-10-16T06:59:49;14.07;;;3.33;;
67193;SDS011;54121;53.508;49.422;2022-10-16T07:02:21;5.00;;;3.30;;
67193;SDS011;54121;53.508;49.422;2022-10-16T07:04:53;11.98;;;2.70;;
67193;SDS011;54121;53.508;49.422;2022-10-16T07:07:25;6.95;;;3.05;;
67193;SDS011;54121;53.508;49.422;2022-10-16T07:09:57;3.05;;;2.08;;
67193;SDS011;54121;53.508;49.422;2022-10-16T07:12:29;11.55;;;3.17;;
67193;SDS011;54121;53.508;49.422;2022-10-16T07:15:05;5.35;;;2.47;;
67193;SDS011;54121;53.508;49.422;2022-10-16T07:17:37;5.10;;;2.72;;
67193;SDS011;54121;53.508;49.422;2022-10-16T07:20:09;10.88;;;3.25;;
67193;SDS011;54121;53.508;49.422;2022-10-16T07:22:41;7.88;;;2.55;;
67193;SDS011;54121;53.508;49.422;2022-10-16T07:25:12;4.70;;;2.05;;
67193;SDS011;54121;53.508;49.422;2022-10-16T07:27:44;4.95;;;2.00;;
67193;SDS011;54121;53.508;49.422;2022-10-16T07:30:16;3.47;;;2.22;;
67193;SDS011;54121;53.508;49.422;2022-10-16T07:32:48;3.92;;;1.65;;
67193;SDS011;54121;53.508;49.422;2022-10-16T07:35:20;3.20;;;1.73;;
67193;SDS011;54121;53.508;49.422;2022-10-16T07:37:52;7.90;;;2.13;;
67193;SDS011;54121;53.508;49.422;2022-10-16T07:40:24;10.38;;;2.65;;
67193;SDS011;54121;53.508;49.422;2022-10-16T07:42:58;3.97;;;2.65;;
67193;SDS011;54121;53.508;49.422;2022-10-16T07:45:30;24.25;;;17.20;;
67193;SDS011;54121;53.508;49.422;2022-10-16T07:48:02;5.68;;;2.60;;
67193;SDS011;54121;53.508;49.422;2022-10-16T07:50:34;4.93;;;2.47;;
67193;SDS011;54121;53.508;49.422;2022-10-16T07:53:06;7.55;;;3.03;;
67193;SDS011;54121;53.508;49.422;2022-10-16T07:55:38;5.70;;;2.60;;
67193;SDS011;54121;53.508;49.422;2022-10-16T07:58:10;5.20;;;2.65;;
67193;SDS011;54121;53.508;49.422;2022-10-16T08:00:42;5.53;;;2.63;;
67193;SDS011;54121;53.508;49.422;2022-10-16T08:03:13;5.20;;;2.65;;
67193;SDS011;54121;53.508;49.422;2022-10-16T08:05:45;4.85;;;2.90;;
67193;SDS011;54121;53.508;49.422;2022-10-16T08:08:20;6.82;;;2.67;;
67193;SDS011;54121;53.508;49.422;2022-10-16T08:10:52;5.55;;;2.40;;
67193;SDS011;54121;53.508;49.422;2022-10-16T08:13:25;8.38;;;3.50;;
67193;SDS011;54121;53.508;49.422;2022-10-16T08:15:57;4.10;;;2.33;;
67193;SDS011;54121;53.508;49.422;2022-10-16T08:18:29;8.13;;;3.70;;
67193;SDS011;54121;53.508;49.422;2022-10-16T08:21:01;4.70;;;2.55;;
67193;SDS011;54121;53.508;49.422;2022-10-16T08:23:33;13.57;;;4.22;;
67193;SDS011;54121;53.508;49.422;2022-10-16T08:26:06;3.65;;;2.08;;
67193;SDS011;54121;53.508;49.422;2022-10-16T08:28:38;3.70;;;2.42;;
67193;SDS011;54121;53.508;49.422;2022-10-16T08:31:12;2.53;;;1.73;;
67193;SDS011;54121;53.508;49.422;2022-10-16T08:33:45;4.28;;;1.88;;
67193;SDS011;54121;53.508;49.422;2022-10-16T08:36:18;3.92;;;2.53;;
67193;SDS011;54121;53.508;49.422;2022-10-16T08:38:50;4.88;;;2.10;;
67193;SDS011;54121;53.508;49.422;2022-10-16T08:49:41;4.35;;;2.67;;
67193;SDS011;54121;53.508;49.422;2022-10-16T08:52:22;6.30;;;3.22;;
67193;SDS011;54121;53.508;49.422;2022-10-16T08:54:56;4.28;;;2.70;;
67193;SDS011;54121;53.508;49.422;2022-10-16T08:57:29;3.67;;;2.22;;
67193;SDS011;54121;53.508;49.422;2022-10-16T09:00:11;5.80;;;2.30;;
67193;SDS011;54121;53.508;49.422;2022-10-16T09:03:48;5.85;;;3.80;;
67193;SDS011;54121;53.508;49.422;2022-10-16T09:06:16;3.90;;;2.17;;
67193;SDS011;54121;53.508;49.422;2022-10-16T09:12:04;3.40;;;2.30;;
67193;SDS011;54121;53.508;49.422;2022-10-16T09:18:09;4.85;;;2.20;;
67193;SDS011;54121;53.508;49.422;2022-10-16T09:21:04;3.25;;;2.38;;
67193;SDS011;54121;53.508;49.422;2022-10-16T09:23:59;4.07;;;1.95;;
67193;SDS011;54121;53.508;49.422;2022-10-16T09:26:40;4.60;;;2.22;;
67193;SDS011;54121;53.508;49.422;2022-10-16T09:29:13;5.30;;;2.20;;
67193;SDS011;54121;53.508;49.422;2022-10-16T09:31:46;8.60;;;2.83;;
67193;SDS011;54121;53.508;49.422;2022-10-16T09:34:28;4.07;;;2.50;;
67193;SDS011;54121;53.508;49.422;2022-10-16T09:37:04;2.97;;;2.00;;
67193;SDS011;54121;53.508;49.422;2022-10-16T09:39:51;3.40;;;2.13;;
67193;SDS011;54121;53.508;49.422;2022-10-16T09:42:29;6.60;;;2.53;;
67193;SDS011;54121;53.508;49.422;2022-10-16T09:45:05;6.97;;;2.25;;
67193;SDS011;54121;53.508;49.422;2022-10-16T09:47:50;4.97;;;2.42;;
67193;SDS011;54121;53.508;49.422;2022-10-16T09:50:26;4.15;;;2.25;;
67193;SDS011;54121;53.508;49.422;2022-10-16T09:53:03;7.85;;;2.80;;
67193;SDS011;54121;53.508;49.422;2022-10-16T09:55:47;3.65;;;2.28;;
67193;SDS011;54121;53.508;49.422;2022-10-16T09:58:25;6.22;;;3.20;;
67193;SDS011;54121;53.508;49.422;2022-10-16T10:00:57;20.45;;;14.32;;
67193;SDS011;54121;53.508;49.422;2022-10-16T10:03:47;2.67;;;2.28;;
67193;SDS011;54121;53.508;49.422;2022-10-16T10:06:25;4.50;;;2.50;;
67193;SDS011;54121;53.508;49.422;2022-10-16T10:09:00;4.10;;;2.38;;
67193;SDS011;54121;53.508;49.422;2022-10-16T10:11:42;4.55;;;2.55;;
67193;SDS011;54121;53.508;49.422;2022-10-16T10:14:36;4.05;;;2.05;;
67193;SDS011;54121;53.508;49.422;2022-10-16T10:22:43;7.72;;;3.00;;
67193;SDS011;54121;53.508;49.422;2022-10-16T10:25:19;10.57;;;2.78;;
67193;SDS011;54121;53.508;49.422;2022-10-16T10:28:06;8.43;;;2.22;;
67193;SDS011;54121;53.508;49.422;2022-10-16T10:33:48;5.82;;;2.25;;
67193;SDS011;54121;53.508;49.422;2022-10-16T10:36:37;5.07;;;2.30;;
67193;SDS011;54121;53.508;49.422;2022-10-16T10:39:15;3.67;;;2.17;;
67193;SDS011;54121;53.508;49.422;2022-10-16T10:45:16;3.42;;;2.33;;
67193;SDS011;54121;53.508;49.422;2022-10-16T10:50:52;10.15;;;3.25;;
67193;SDS011;54121;53.508;49.422;2022-10-16T10:56:42;8.82;;;2.20;;
67193;SDS011;54121;53.508;49.422;2022-10-16T11:10:46;9.57;;;5.63;;
67193;SDS011;54121;53.508;49.422;2022-10-16T11:13:30;4.72;;;2.63;;
67193;SDS011;54121;53.508;49.422;2022-10-16T11:16:18;5.20;;;3.08;;
67193;SDS011;54121;53.508;49.422;2022-10-16T11:21:37;3.35;;;2.22;;
67193;SDS011;54121;53.508;49.422;2022-10-16T11:26:47;3.53;;;2.45;;
67193;SDS011;54121;53.508;49.422;2022-10-16T11:29:25;5.30;;;1.98;;
67193;SDS011;54121;53.508;49.422;2022-10-16T11:32:04;5.30;;;2.33;;
67193;SDS011;54121;53.508;49.422;2022-10-16T11:35:00;7.93;;;2.58;;
67193;SDS011;54121;53.508;49.422;2022-10-16T11:37:43;3.13;;;2.33;;
67193;SDS011;54121;53.508;49.422;2022-10-16T11:40:33;5.15;;;2.00;;
67193;SDS011;54121;53.508;49.422;2022-10-16T11:43:14;4.90;;;2.22;;
67193;SDS011;54121;53.508;49.422;2022-10-16T11:45:55;7.47;;;2.22;;
67193;SDS011;54121;53.508;49.422;2022-10-16T11:48:33;3.58;;;2.30;;
67193;SDS011;54121;53.508;49.422;2022-10-16T11:51:55;5.18;;;2.83;;
67193;SDS011;54121;53.508;49.422;2022-10-16T11:54:26;4.30;;;2.65;;
67193;SDS011;54121;53.508;49.422;2022-10-16T11:57:07;6.38;;;2.20;;
67193;SDS011;54121;53.508;49.422;2022-10-16T11:59:46;5.82;;;2.75;;
67193;SDS011;54121;53.508;49.422;2022-10-16T12:02:30;7.05;;;3.10;;
67193;SDS011;54121;53.508;49.422;2022-10-16T12:08:11;4.75;;;3.08;;
67193;SDS011;54121;53.508;49.422;2022-10-16T12:10:45;13.52;;;3.72;;
67193;SDS011;54121;53.508;49.422;2022-10-16T12:13:31;7.85;;;3.28;;
67193;SDS011;54121;53.508;49.422;2022-10-16T12:18:44;3.78;;;2.35;;
67193;SDS011;54121;53.508;49.422;2022-10-16T12:21:17;8.85;;;3.42;;
67193;SDS011;54121;53.508;49.422;2022-10-16T12:24:01;4.93;;;2.15;;
67193;SDS011;54121;53.508;49.422;2022-10-16T12:26:37;4.10;;;2.13;;
67193;SDS011;54121;53.508;49.422;2022-10-16T12:34:58;4.70;;;2.30;;
67193;SDS011;54121;53.508;49.422;2022-10-16T12:37:35;5.13;;;2.80;;
67193;SDS011;54121;53.508;49.422;2022-10-16T12:40:22;5.32;;;3.10;;
67193;SDS011;54121;53.508;49.422;2022-10-16T12:43:10;4.32;;;2.47;;
67193;SDS011;54121;53.508;49.422;2022-10-16T12:46:01;8.60;;;2.88;;
67193;SDS011;54121;53.508;49.422;2022-10-16T12:48:43;4.85;;;2.38;;
67193;SDS011;54121;53.508;49.422;2022-10-16T12:59:58;11.07;;;4.22;;
67193;SDS011;54121;53.508;49.422;2022-10-16T13:03:01;9.10;;;4.28;;
67193;SDS011;54121;53.508;49.422;2022-10-16T13:06:08;11.10;;;4.50;;
67193;SDS011;54121;53.508;49.422;2022-10-16T13:20:12;17.92;;;8.30;;
67193;SDS011;54121;53.508;49.422;2022-10-16T13:26:01;22.67;;;9.23;;
67193;SDS011;54121;53.508;49.422;2022-10-16T13:28:38;15.43;;;9.10;;
67193;SDS011;54121;53.508;49.422;2022-10-16T13:31:13;21.33;;;10.60;;
67193;SDS011;54121;53.508;49.422;2022-10-16T13:33:49;21.52;;;9.82;;
67193;SDS011;54121;53.508;49.422;2022-10-16T13:36:27;21.20;;;10.85;;
67193;SDS011;54121;53.508;49.422;2022-10-16T13:39:14;19.30;;;8.80;;
67193;SDS011;54121;53.508;49.422;2022-10-16T13:44:47;25.40;;;10.27;;
67193;SDS011;54121;53.508;49.422;2022-10-16T13:47:25;15.80;;;9.48;;
67193;SDS011;54121;53.508;49.422;2022-10-16T13:50:20;18.02;;;11.75;;
67193;SDS011;54121;53.508;49.422;2022-10-16T13:52:51;26.15;;;13.95;;
67193;SDS011;54121;53.508;49.422;2022-10-16T13:55:23;28.95;;;12.60;;
67193;SDS011;54121;53.508;49.422;2022-10-16T13:58:04;28.52;;;14.40;;
67193;SDS011;54121;53.508;49.422;2022-10-16T14:00:38;23.80;;;14.75;;
67193;SDS011;54121;53.508;49.422;2022-10-16T14:03:14;30.40;;;15.55;;
67193;SDS011;54121;53.508;49.422;2022-10-16T14:05:47;36.92;;;16.17;;
67193;SDS011;54121;53.508;49.422;2022-10-16T14:08:19;58.67;;;19.65;;
67193;SDS011;54121;53.508;49.422;2022-10-16T14:10:54;53.38;;;18.73;;
67193;SDS011;54121;53.508;49.422;2022-10-16T14:13:37;42.70;;;19.38;;
67193;SDS011;54121;53.508;49.422;2022-10-16T14:16:24;39.38;;;18.58;;
67193;SDS011;54121;53.508;49.422;2022-10-16T14:19:00;45.33;;;19.67;;
67193;SDS011;54121;53.508;49.422;2022-10-16T14:21:34;62.30;;;23.38;;
67193;SDS011;54121;53.508;49.422;2022-10-16T14:24:11;52.00;;;24.70;;
67193;SDS011;54121;53.508;49.422;2022-10-16T14:26:44;45.03;;;21.30;;
67193;SDS011;54121;53.508;49.422;2022-10-16T14:29:18;41.03;;;20.52;;
67193;SDS011;54121;53.508;49.422;2022-10-16T14:31:58;51.65;;;23.73;;
67193;SDS011;54121;53.508;49.422;2022-10-16T14:34:36;56.92;;;17.77;;
67193;SDS011;54121;53.508;49.422;2022-10-16T14:39:48;20.60;;;10.23;;
67193;SDS011;54121;53.508;49.422;2022-10-16T14:42:22;24.55;;;8.75;;
67193;SDS011;54121;53.508;49.422;2022-10-16T14:44:55;30.08;;;9.40;;
67193;SDS011;54121;53.508;49.422;2022-10-16T14:47:28;29.13;;;9.15;;
67193;SDS011;54121;53.508;49.422;2022-10-16T14:50:00;43.70;;;10.80;;
67193;SDS011;54121;53.508;49.422;2022-10-16T14:52:32;24.42;;;9.57;;
67193;SDS011;54121;53.508;49.422;2022-10-16T14:55:04;24.23;;;8.90;;
67193;SDS011;54121;53.508;49.422;2022-10-16T14:57:37;30.38;;;8.60;;
67193;SDS011;54121;53.508;49.422;2022-10-16T15:00:13;26.17;;;8.93;;
67193;SDS011;54121;53.508;49.422;2022-10-16T15:02:52;19.83;;;8.10;;
67193;SDS011;54121;53.508;49.422;2022-10-16T15:05:25;17.80;;;7.13;;
67193;SDS011;54121;53.508;49.422;2022-10-16T15:07:58;16.73;;;6.68;;
67193;SDS011;54121;53.508;49.422;2022-10-16T15:10:30;46.78;;;9.88;;
67193;SDS011;54121;53.508;49.422;2022-10-16T15:13:03;21.80;;;6.70;;
67193;SDS011;54121;53.508;49.422;2022-10-16T15:15:42;18.35;;;6.72;;
67193;SDS011;54121;53.508;49.422;2022-10-16T15:18:16;19.27;;;6.97;;
67193;SDS011;54121;53.508;49.422;2022-10-16T15:20:51;22.40;;;7.88;;
67193;SDS011;54121;53.508;49.422;2022-10-16T15:23:23;13.68;;;6.88;;
67193;SDS011;54121;53.508;49.422;2022-10-16T15:25:55;20.90;;;8.63;;
67193;SDS011;54121;53.508;49.422;2022-10-16T15:28:27;16.17;;;8.73;;
67193;SDS011;54121;53.508;49.422;2022-10-16T15:30:59;16.83;;;8.30;;
67193;SDS011;54121;53.508;49.422;2022-10-16T15:33:31;26.98;;;7.35;;
67193;SDS011;54121;53.508;49.422;2022-10-16T15:36:06;18.45;;;6.53;;
67193;SDS011;54121;53.508;49.422;2022-10-16T15:38:38;25.92;;;7.90;;
67193;SDS011;54121;53.508;49.422;2022-10-16T15:41:10;15.77;;;7.82;;
67193;SDS011;54121;53.508;49.422;2022-10-16T15:43:42;21.10;;;9.20;;
67193;SDS011;54121;53.508;49.422;2022-10-16T15:46:14;22.45;;;7.80;;
67193;SDS011;54121;53.508;49.422;2022-10-16T15:48:49;13.73;;;8.13;;
67193;SDS011;54121;53.508;49.422;2022-10-16T15:51:22;18.50;;;10.70;;
67193;SDS011;54121;53.508;49.422;2022-10-16T15:53:55;20.70;;;11.25;;
67193;SDS011;54121;53.508;49.422;2022-10-16T15:56:28;29.08;;;12.00;;
67193;SDS011;54121;53.508;49.422;2022-10-16T15:59:00;23.38;;;13.55;;
67193;SDS011;54121;53.508;49.422;2022-10-16T16:01:35;24.75;;;12.57;;
67193;SDS011;54121;53.508;49.422;2022-10-16T16:04:07;29.92;;;15.23;;
67193;SDS011;54121;53.508;49.422;2022-10-16T16:06:39;29.38;;;18.17;;
67193;SDS011;54121;53.508;49.422;2022-10-16T16:09:15;38.22;;;22.83;;
67193;SDS011;54121;53.508;49.422;2022-10-16T16:11:47;41.95;;;19.80;;
67193;SDS011;54121;53.508;49.422;2022-10-16T16:14:20;35.72;;;18.58;;
67193;SDS011;54121;53.508;49.422;2022-10-16T16:16:52;31.35;;;15.32;;
67193;SDS011;54121;53.508;49.422;2022-10-16T16:19:24;39.88;;;15.57;;
67193;SDS011;54121;53.508;49.422;2022-10-16T16:21:56;32.88;;;14.48;;
67193;SDS011;54121;53.508;49.422;2022-10-16T16:24:28;40.88;;;15.23;;
67193;SDS011;54121;53.508;49.422;2022-10-16T16:27:00;22.15;;;12.82;;
67193;SDS011;54121;53.508;49.422;2022-10-16T16:29:32;25.63;;;11.98;;
67193;SDS011;54121;53.508;49.422;2022-10-16T16:32:04;23.13;;;11.23;;
67193;SDS011;54121;53.508;49.422;2022-10-16T16:34:36;25.95;;;10.75;;
67193;SDS011;54121;53.508;49.422;2022-10-16T16:37:07;17.17;;;9.60;;
67193;SDS011;54121;53.508;49.422;2022-10-16T16:39:39;21.65;;;10.63;;
67193;SDS011;54121;53.508;49.422;2022-10-16T16:42:12;19.77;;;9.65;;
67193;SDS011;54121;53.508;49.422;2022-10-16T16:44:44;18.23;;;9.80;;
67193;SDS011;54121;53.508;49.422;2022-10-16T16:47:16;20.60;;;10.70;;
67193;SDS011;54121;53.508;49.422;2022-10-16T16:49:48;21.63;;;10.73;;
67193;SDS011;54121;53.508;49.422;2022-10-16T16:52:20;19.13;;;10.55;;
67193;SDS011;54121;53.508;49.422;2022-10-16T16:54:53;18.58;;;9.95;;